Portada
METAR-TAF:

METAR-TAF

Aeropuertos :

Aeropuerto de Bilbao

Bilbao, España

latitud: 43-18N, longitud: 002-56W, altitud: 42 m

Observación

El informe se hizo hace 29 minutos, a las 17:00 UTC
Viento 6 kt del noreste
Temperatura 19°C
Humedad 73%
Presión 1028 hPa
Visibilidad 10 km o más
Escasas nubes a una altura de 2300 ft
Cielo nuboso a una altura de 4000 ft

METAR: LEBB 261700Z 05006KT 9999 FEW023 BKN040 19/14 Q1028 NOSIG

Hora: 19:29 (17:29 UTC)

Pronóstico

El informe se hizo hace 6 horas y 29 minutos, a las 11:00 UTC
Pronóstico válido del 26 a las 12 UTC al 27 a las 12 UTC
Viento 8 kt del norte-noroeste
Visibilidad 10 km o más
Nubes dispersas a una altura de 1500 ft
Cielo nuboso a una altura de 3000 ft
Probabilidad 30% :
Temporalmente
del 27 a las 00 UTC al 27 a las 07 UTC
Visibilidad: 4000 m
Cielo nuboso a una altura de 1200 ft
llovizna ligera

TAF: LEBB 261100Z 2612/2712 33008KT 9999 SCT015 BKN030 TX17/2615Z TN13/2706Z PROB30 TEMPO 2700/2707 4000 -DZ BKN012

Observaciones y pronósticos meteorológicos de más de 4000 aeropuertos (mensajes METAR y TAF).

Los puntos amarillos y rojos representan las estaciones disponibles.

Ponga el ratón en el punto deseado para ver el nombre de la estación.

Haga clic para ver las observaciones y los pronósticos meteorológicos.

Para cambiar el mapa : haga clic en los botones verdes con una cruz de color negro para hacer un zoom, en el botón verde con un guión para alejar o en las flechas verdes para mapas adyacentes.


METAR-TAF: